Time;durP1;ratioP1;P1;durP2;ratioP2;P2;SDS_P1;SDS_P2;PMS_P1;PMS_P2;Temp;Humidity;BMP_temperature;BMP_pressure;BME280_temperature;BME280_humidity;BME280_pressure;Samples;Min_cycle;Max_cycle;Signal;HPM_P1;HPM_P2
2021/07/22 03:30:30;;;;;;;9.93;7.40;;;;;;;19.34;57.16;99224.56;8447738;23;21317;31
2021/07/22 03:33:53;;;;;;;8.93;7.37;;;;;;;19.21;57.49;99213.16;6863235;28;20217;-84
2021/07/22 03:37:15;;;;;;;9.87;7.80;;;;;;;19.34;56.96;99224.56;6865667;28;20315;-82
2021/07/22 03:40:36;;;;;;;8.90;7.67;;;;;;;19.62;56.28;99220.84;6865603;28;20664;-83
2021/07/22 03:43:58;;;;;;;12.47;9.37;;;;;;;19.61;55.44;99219.19;6841326;28;20213;-83
2021/07/22 03:47:19;;;;;;;9.13;7.80;;;;;;;18.58;56.20;99073.34;6839447;29;20249;-83
2021/07/22 03:50:49;;;;;;;10.27;7.97;;;;;;;19.40;55.85;99204.41;6839199;29;20754;-82
2021/07/22 03:54:10;;;;;;;12.40;7.87;;;;;;;19.35;56.03;99198.84;6839557;28;20245;-84
2021/07/22 03:57:32;;;;;;;8.17;7.30;;;;;;;19.53;56.03;99225.94;6863808;28;20259;-82
2021/07/22 04:00:57;;;;;;;11.33;7.93;;;;;;;18.82;57.63;99220.41;6865514;28;20232;-81
2021/07/22 04:04:18;;;;;;;12.00;8.47;;;;;;;19.03;58.44;99227.88;6865980;28;20236;-82
2021/07/22 04:07:41;;;;;;;11.07;7.90;;;;;;;19.11;57.57;99232.09;6865153;28;20208;-81
2021/07/22 04:11:03;;;;;;;8.50;7.63;;;;;;;18.85;56.57;99098.84;6865171;28;20235;-81
2021/07/22 04:14:24;;;;;;;13.53;7.90;;;;;;;19.55;56.48;99225.66;6865135;28;20205;-83
2021/07/22 04:17:55;;;;;;;11.07;7.63;;;;;;;19.56;55.96;99222.69;6864649;28;20267;-81
2021/07/22 04:21:19;;;;;;;11.40;8.10;;;;;;;18.68;58.38;99224.53;6865170;28;20228;-82
2021/07/22 04:24:42;;;;;;;13.10;9.03;;;;;;;18.89;59.01;99228.44;6864730;28;20224;-82
2021/07/22 04:28:04;;;;;;;8.17;7.37;;;;;;;19.35;57.42;99215.25;6864801;28;20232;-81
2021/07/22 04:31:26;;;;;;;8.30;7.50;;;;;;;19.19;57.12;99149.66;6864190;28;20268;-81
2021/07/22 04:34:47;;;;;;;11.33;8.07;;;;;;;19.35;57.38;99212.53;6865092;28;20206;-81
2021/07/22 04:38:09;;;;;;;8.73;7.93;;;;;;;19.39;58.21;99219.16;6865101;28;20366;-80
2021/07/22 04:41:32;;;;;;;8.30;7.50;;;;;;;19.36;57.52;99207.91;6860097;28;20230;-82
2021/07/22 04:44:53;;;;;;;8.93;7.80;;;;;;;19.66;56.99;99228.31;6838085;29;20249;-84
2021/07/22 04:48:15;;;;;;;8.47;7.67;;;;;;;19.90;57.35;99220.66;6837290;29;20304;-80
2021/07/22 04:51:37;;;;;;;10.37;8.00;;;;;;;19.87;57.40;99226.66;6837048;29;20241;-82
2021/07/22 04:54:58;;;;;;;9.63;8.00;;;;;;;19.93;56.14;99234.66;6855821;28;20213;-81
2021/07/22 04:58:22;;;;;;;10.90;7.60;;;;;;;19.49;57.40;99235.72;6862643;28;20248;-82
2021/07/22 05:01:44;;;;;;;9.63;7.23;;;;;;;19.71;57.52;99225.66;6862916;28;20224;-83
2021/07/22 05:05:09;;;;;;;9.87;7.83;;;;;;;19.57;57.07;99180.56;6863425;28;20219;-81
2021/07/22 05:08:31;;;;;;;10.50;8.40;;;;;;;20.27;56.72;99225.25;6846074;28;20202;-82
2021/07/22 05:11:54;;;;;;;8.33;7.47;;;;;;;20.59;55.89;99228.06;6836878;29;20312;-82
2021/07/22 05:15:17;;;;;;;10.20;7.63;;;;;;;21.17;54.13;99232.47;6836527;28;20478;-83
2021/07/22 05:18:40;;;;;;;9.60;7.20;;;;;;;21.18;53.49;99219.59;6836196;29;20320;-82
2021/07/22 05:22:03;;;;;;;8.90;7.07;;;;;;;21.64;52.19;99230.59;6835754;29;20217;-81
2021/07/22 05:25:25;;;;;;;9.67;7.40;;;;;;;21.88;51.54;99220.00;6835878;29;20222;-82
2021/07/22 05:28:46;;;;;;;10.97;8.40;;;;;;;21.42;53.41;99240.06;6835935;28;20272;-81
2021/07/22 05:32:09;;;;;;;10.97;7.50;;;;;;;21.64;52.88;99235.22;6851781;28;20243;-82
2021/07/22 05:35:31;;;;;;;10.80;7.80;;;;;;;22.15;52.11;99231.69;6861762;28;20587;-84
2021/07/22 05:38:53;;;;;;;11.53;7.23;;;;;;;22.71;49.76;99239.81;6855356;28;20227;-82
2021/07/22 05:42:14;;;;;;;9.17;6.93;;;;;;;22.43;50.23;99234.81;6850754;28;20265;-82
2021/07/22 05:45:36;;;;;;;9.87;7.20;;;;;;;23.12;47.86;99215.94;6836087;28;20656;-82
2021/07/22 05:48:59;;;;;;;14.37;7.07;;;;;;;22.96;49.27;99236.28;6860150;28;20206;-82
2021/07/22 05:52:21;;;;;;;8.77;7.87;;;;;;;22.51;51.12;99228.81;6861796;28;20219;-82
2021/07/22 05:55:43;;;;;;;9.00;7.67;;;;;;;22.76;50.50;99226.09;6863361;28;20208;-82
2021/07/22 05:59:04;;;;;;;11.33;7.50;;;;;;;22.62;50.64;99189.25;6863076;28;20233;-82
2021/07/22 06:02:26;;;;;;;9.07;7.93;;;;;;;22.74;50.41;99232.94;6863233;28;20223;-81
2021/07/22 06:05:49;;;;;;;8.30;7.47;;;;;;;22.66;50.97;99237.06;6836674;28;20273;-82
2021/07/22 06:09:10;;;;;;;8.80;7.87;;;;;;;22.33;50.92;99236.69;6836488;29;20221;-82
2021/07/22 06:12:32;;;;;;;10.73;7.80;;;;;;;22.95;50.67;99231.88;6836453;29;20230;-82
2021/07/22 06:15:53;;;;;;;9.70;7.60;;;;;;;23.67;49.00;99243.41;6853856;28;20214;-84
2021/07/22 06:19:15;;;;;;;11.03;7.47;;;;;;;23.39;48.33;99216.47;6862193;28;20228;-82
2021/07/22 06:22:38;;;;;;;11.07;8.13;;;;;;;23.57;48.51;99247.00;6861560;28;20693;-82
2021/07/22 06:26:00;;;;;;;11.50;7.80;;;;;;;23.81;46.34;99215.00;6863824;28;20210;-82
2021/07/22 06:29:22;;;;;;;9.93;7.70;;;;;;;24.45;46.12;99242.56;6862198;28;20204;-81
2021/07/22 06:32:44;;;;;;;8.20;7.40;;;;;;;24.63;44.05;99240.03;6862670;28;20291;-82
2021/07/22 06:36:05;;;;;;;8.40;6.80;;;;;;;24.99;44.36;99227.63;6863736;28;20373;-83
2021/07/22 06:39:32;;;;;;;9.17;7.40;;;;;;;24.66;45.66;99211.06;6862543;28;20871;-81
2021/07/22 06:42:53;;;;;;;8.40;7.43;;;;;;;24.73;44.63;99237.19;6864437;28;20298;-83
2021/07/22 06:46:15;;;;;;;8.23;6.63;;;;;;;25.97;42.18;99219.81;6863259;28;20222;-83
2021/07/22 06:49:36;;;;;;;8.37;7.00;;;;;;;25.27;44.47;99226.88;6863474;28;20209;-82
2021/07/22 06:52:58;;;;;;;7.40;6.70;;;;;;;24.88;45.45;99233.50;6868003;28;20235;-82
2021/07/22 06:56:21;;;;;;;8.77;7.50;;;;;;;25.48;44.10;99222.78;6868567;28;20216;-82
2021/07/22 06:59:43;;;;;;;9.60;7.53;;;;;;;26.30;41.91;99214.13;6863249;28;20715;-82
2021/07/22 07:03:05;;;;;;;8.87;8.07;;;;;;;26.27;42.16;99227.72;6854536;28;20300;-82
2021/07/22 07:06:27;;;;;;;10.80;7.90;;;;;;;25.68;43.86;99221.75;6860921;28;20221;-82
2021/07/22 07:09:48;;;;;;;7.77;6.70;;;;;;;26.61;41.81;99204.28;6867218;28;20245;-84
2021/07/22 07:13:11;;;;;;;9.23;7.60;;;;;;;26.32;42.35;99225.69;6865762;28;20229;-85
2021/07/22 07:16:33;;;;;;;9.33;7.17;;;;;;;26.58;42.02;99221.50;6866851;28;20205;-84
2021/07/22 07:19:55;;;;;;;9.90;7.67;;;;;;;27.48;40.10;99181.25;6862361;28;20236;-81
2021/07/22 07:23:16;;;;;;;11.43;7.60;;;;;;;27.28;39.80;99225.13;6857028;28;20237;-84
2021/07/22 07:26:38;;;;;;;9.60;7.77;;;;;;;26.73;40.41;99214.94;6852221;28;20673;-84
2021/07/22 07:30:01;;;;;;;9.00;6.83;;;;;;;26.89;40.89;99219.91;6862781;28;20207;-84
2021/07/22 07:33:23;;;;;;;8.17;6.97;;;;;;;26.05;41.73;99228.28;6864726;28;20234;-84
2021/07/22 07:36:45;;;;;;;8.00;7.20;;;;;;;26.23;41.56;99224.72;6864429;28;20213;-83
2021/07/22 07:40:07;;;;;;;10.83;7.37;;;;;;;26.76;40.42;99212.38;6866461;28;20230;-83
2021/07/22 07:43:31;;;;;;;8.93;7.00;;;;;;;27.44;38.96;99165.56;6866390;28;20223;-82
2021/07/22 07:46:54;;;;;;;8.63;7.73;;;;;;;28.26;36.77;99181.88;6867652;28;20216;-82
2021/07/22 07:50:15;;;;;;;7.37;6.67;;;;;;;27.76;36.84;99202.34;6865115;28;20229;-84
2021/07/22 07:53:37;;;;;;;7.87;7.07;;;;;;;28.35;36.23;99207.78;6865095;28;20212;-85
2021/07/22 07:56:59;;;;;;;8.57;7.20;;;;;;;28.33;37.11;99193.41;6857911;28;20211;-84
2021/07/22 08:00:21;;;;;;;10.00;7.37;;;;;;;27.95;37.05;99196.72;6863468;28;20599;-84
2021/07/22 08:03:44;;;;;;;7.70;6.90;;;;;;;27.86;37.95;99173.63;6864490;28;20213;-84
2021/07/22 08:07:05;;;;;;;7.57;6.70;;;;;;;28.31;39.50;99190.09;6864663;28;20210;-84
2021/07/22 08:10:27;;;;;;;10.50;7.90;;;;;;;28.64;38.41;99193.56;6856896;28;20203;-85
2021/07/22 08:13:49;;;;;;;13.30;7.67;;;;;;;28.76;38.14;99194.66;6863812;28;20220;-85
2021/07/22 08:17:14;;;;;;;8.47;6.77;;;;;;;29.08;37.53;99152.78;6863438;28;20220;-84
2021/07/22 08:20:40;;;;;;;9.83;7.23;;;;;;;29.01;36.40;99148.84;6847292;28;20227;-85
2021/07/22 08:24:02;;;;;;;7.37;6.67;;;;;;;29.67;36.49;99182.09;6837093;29;20204;-85
2021/07/22 08:27:27;;;;;;;9.30;7.23;;;;;;;29.11;36.82;99177.16;6838940;28;20212;-84
2021/07/22 08:30:49;;;;;;;9.37;7.07;;;;;;;29.51;36.70;99181.66;6861665;28;20709;-84
2021/07/22 08:34:12;;;;;;;8.23;6.30;;;;;;;29.69;36.00;99180.63;6863357;28;20241;-85
2021/07/22 08:37:35;;;;;;;9.43;6.90;;;;;;;29.53;36.01;99167.44;6863136;28;20265;-85
2021/07/22 08:40:57;;;;;;;8.90;7.13;;;;;;;29.49;35.75;99172.78;6862641;28;20601;-85
2021/07/22 08:44:19;;;;;;;9.80;6.87;;;;;;;30.68;34.27;99172.41;6862994;28;20208;-85
2021/07/22 08:47:41;;;;;;;7.80;6.00;;;;;;;31.84;32.13;99175.69;6863662;28;20218;-85
2021/07/22 08:51:03;;;;;;;11.60;6.93;;;;;;;30.37;33.62;99183.63;6862450;28;20237;-85
2021/07/22 08:54:26;;;;;;;8.10;6.20;;;;;;;31.22;33.14;99172.56;6863024;28;20212;-85
2021/07/22 08:57:49;;;;;;;7.97;6.87;;;;;;;31.58;32.33;99119.16;6862691;28;20230;-84
2021/07/22 09:01:11;;;;;;;7.97;6.73;;;;;;;32.07;31.80;99171.47;6847908;28;20227;-84
2021/07/22 09:04:49;;;;;;;7.00;6.37;;;;;;;31.63;32.36;99135.72;6863685;28;20566;-84
2021/07/22 09:08:10;;;;;;;9.00;6.83;;;;;;;31.77;32.55;99169.81;6862572;28;20190;-84
2021/07/22 09:11:33;;;;;;;9.33;8.07;;;;;;;32.00;33.49;99176.75;6862847;28;20225;-84
2021/07/22 09:14:58;;;;;;;9.03;6.90;;;;;;;31.32;33.43;99172.19;6863189;28;20217;-84
2021/07/22 09:18:23;;;;;;;8.00;6.47;;;;;;;30.85;35.74;99134.22;6862155;28;20228;-85
2021/07/22 09:21:45;;;;;;;9.00;6.90;;;;;;;30.72;35.66;99163.06;6862752;28;20221;-83
2021/07/22 09:25:07;;;;;;;9.07;6.67;;;;;;;30.53;33.70;99173.69;6862857;28;20215;-84
2021/07/22 09:28:30;;;;;;;6.30;5.77;;;;;;;28.98;36.93;99180.81;6862507;28;20222;-84
2021/07/22 09:32:04;;;;;;;7.47;6.80;;;;;;;31.42;33.20;99171.84;6894122;23;20229;-87
2021/07/22 09:35:26;;;;;;;9.07;6.80;;;;;;;31.55;31.49;99165.25;6914383;28;20252;-84
2021/07/22 09:38:48;;;;;;;8.33;6.40;;;;;;;31.81;31.75;99154.84;6914892;28;20231;-84
2021/07/22 09:42:10;;;;;;;7.97;6.60;;;;;;;32.88;29.12;99154.03;6915595;28;20699;-84
2021/07/22 09:45:36;;;;;;;7.13;6.30;;;;;;;32.27;30.45;99142.81;6915577;28;20218;-84
2021/07/22 09:49:10;;;;;;;8.10;6.43;;;;;;;32.46;29.69;99168.28;6913806;28;20196;-83
2021/07/22 09:52:32;;;;;;;9.90;6.43;;;;;;;31.47;30.51;99154.97;6887951;28;20228;-83
2021/07/22 09:55:54;;;;;;;10.63;6.30;;;;;;;31.97;30.51;99150.31;6888160;28;20215;-83
2021/07/22 09:59:16;;;;;;;8.57;6.57;;;;;;;31.12;31.54;99152.53;6891848;28;20258;-83
2021/07/22 10:02:40;;;;;;;7.90;6.70;;;;;;;31.05;31.74;99152.22;6915342;28;20239;-83
2021/07/22 10:06:03;;;;;;;9.30;6.57;;;;;;;30.81;33.04;99154.72;6897990;28;20586;-83
2021/07/22 10:09:26;;;;;;;9.50;6.60;;;;;;;31.53;30.94;99122.97;6886088;28;20211;-85
2021/07/22 10:12:53;;;;;;;7.67;6.67;;;;;;;31.54;30.44;99123.78;6887803;28;20750;-83
2021/07/22 10:16:17;;;;;;;7.10;6.40;;;;;;;31.20;30.85;99137.81;6887931;28;20302;-83
2021/07/22 10:19:41;;;;;;;6.77;6.00;;;;;;;33.72;26.53;99126.31;6887422;28;20317;-83
2021/07/22 10:23:03;;;;;;;10.40;6.20;;;;;;;34.26;24.91;99130.53;6887247;28;20362;-83
2021/07/22 10:26:25;;;;;;;8.00;5.47;;;;;;;34.40;25.54;99124.56;6891518;28;20582;-83
2021/07/22 10:29:47;;;;;;;7.10;5.63;;;;;;;33.54;24.97;99113.69;6892729;28;20204;-83
2021/07/22 10:33:08;;;;;;;8.53;6.33;;;;;;;34.04;25.45;99116.19;6892708;28;20244;-84
2021/07/22 10:36:31;;;;;;;8.50;6.50;;;;;;;34.26;25.10;99104.53;6892900;28;20240;-83
2021/07/22 10:40:00;;;;;;;7.17;5.97;;;;;;;34.86;25.69;99118.38;6892231;28;20228;-83
2021/07/22 10:43:37;;;;;;;9.23;6.43;;;;;;;33.94;27.46;99108.25;6892553;28;20594;-83
2021/07/22 10:47:02;;;;;;;9.57;7.27;;;;;;;34.03;26.91;99101.38;6889902;28;20208;-84
2021/07/22 10:51:01;;;;;;;7.10;6.47;;;;;;;33.83;28.26;99099.53;6891808;28;20235;-84
2021/07/22 10:54:51;;;;;;;9.47;6.60;;;;;;;33.73;27.74;99090.78;6892430;28;20188;-83
2021/07/22 10:58:42;;;;;;;8.53;6.60;;;;;;;34.24;27.05;99098.44;6893670;28;20652;-83
2021/07/22 11:02:04;;;;;;;8.50;6.90;;;;;;;34.55;27.21;99088.22;6880083;28;20232;-83
2021/07/22 11:05:57;;;;;;;8.57;6.70;;;;;;;33.83;27.09;99093.94;6893008;28;20216;-83
2021/07/22 11:09:18;;;;;;;6.53;5.90;;;;;;;35.06;27.06;99083.72;6892420;28;20326;-84
2021/07/22 11:12:49;;;;;;;9.60;6.20;;;;;;;34.38;27.61;99084.91;6893401;28;20238;-83
2021/07/22 11:16:18;;;;;;;8.30;6.20;;;;;;;34.87;26.42;99086.38;6893738;28;20280;-84
2021/07/22 11:19:39;;;;;;;8.63;7.77;;;;;;;32.96;27.82;99074.88;6891888;28;20696;-83
2021/07/22 11:23:15;;;;;;;8.07;7.00;;;;;;;32.63;29.54;99076.00;6892520;28;20228;-83
2021/07/22 11:26:38;;;;;;;8.77;7.27;;;;;;;32.13;29.83;99069.66;6893378;28;20210;-83
2021/07/22 11:30:10;;;;;;;8.37;6.83;;;;;;;32.40;29.24;99072.75;6891648;28;20212;-83
2021/07/22 11:33:33;;;;;;;8.63;6.90;;;;;;;31.28;30.75;99076.50;6892225;28;20244;-83
2021/07/22 11:36:56;;;;;;;10.27;7.60;;;;;;;32.71;28.98;99064.75;6891492;28;20216;-83
2021/07/22 11:40:18;;;;;;;9.77;7.07;;;;;;;31.95;29.59;99074.53;6891187;28;20242;-83
2021/07/22 11:43:41;;;;;;;9.70;8.40;;;;;;;33.45;26.98;99065.47;6892320;28;20664;-83
2021/07/22 11:47:10;;;;;;;11.10;7.67;;;;;;;33.61;27.70;99060.78;6892034;28;20234;-83
2021/07/22 11:50:32;;;;;;;8.40;7.43;;;;;;;33.42;27.86;99027.00;6891143;28;20220;-83
2021/07/22 11:53:58;;;;;;;8.13;6.80;;;;;;;35.43;25.33;99059.91;6892129;28;20778;-83
2021/07/22 11:57:19;;;;;;;7.73;6.87;;;;;;;35.54;25.44;99055.41;6891599;28;20288;-84
2021/07/22 12:00:41;;;;;;;9.00;7.13;;;;;;;35.38;25.91;99044.16;6890136;28;20232;-84
2021/07/22 12:04:04;;;;;;;7.17;6.57;;;;;;;35.62;24.49;99040.34;6893499;28;20203;-84
2021/07/22 12:07:26;;;;;;;7.70;7.00;;;;;;;35.90;24.39;99029.84;6890564;28;20215;-84
2021/07/22 12:10:49;;;;;;;8.67;7.47;;;;;;;35.20;25.99;99040.03;6890263;28;20662;-84
2021/07/22 12:14:11;;;;;;;7.90;7.10;;;;;;;34.72;26.40;99033.91;6891095;28;20235;-83
2021/07/22 12:17:33;;;;;;;8.83;7.27;;;;;;;34.84;26.24;99017.84;6891323;28;20572;-83
2021/07/22 12:20:56;;;;;;;7.80;7.00;;;;;;;34.86;26.36;99023.94;6889887;28;20236;-84
2021/07/22 12:24:18;;;;;;;12.70;7.00;;;;;;;34.99;25.75;99024.66;6890930;28;20676;-84
2021/07/22 12:27:42;;;;;;;10.00;6.97;;;;;;;35.03;25.30;99019.97;6890830;28;20209;-83
2021/07/22 12:31:20;;;;;;;9.00;8.13;;;;;;;35.56;25.55;99008.94;6889820;28;20601;-83
2021/07/22 12:34:42;;;;;;;9.70;7.63;;;;;;;35.23;25.45;99002.91;6890082;28;20211;-83
2021/07/22 12:38:06;;;;;;;8.40;7.60;;;;;;;35.43;24.93;98999.00;6889561;28;20282;-83
2021/07/22 12:41:28;;;;;;;8.33;7.50;;;;;;;35.94;24.55;99005.47;6889706;28;20263;-83
2021/07/22 12:44:51;;;;;;;8.03;7.30;;;;;;;35.76;23.78;98999.47;6890243;28;20214;-84
2021/07/22 12:48:13;;;;;;;8.70;7.17;;;;;;;35.58;24.28;98992.59;6889846;28;20208;-83
2021/07/22 12:51:35;;;;;;;9.03;7.40;;;;;;;34.79;26.49;99001.28;6889499;28;20232;-84
2021/07/22 12:55:03;;;;;;;8.50;7.03;;;;;;;34.82;25.87;98982.94;6891213;28;20699;-83
2021/07/22 12:58:26;;;;;;;9.00;8.13;;;;;;;34.83;25.31;98993.00;6889827;28;20211;-83
2021/07/22 13:01:56;;;;;;;7.90;7.13;;;;;;;34.86;26.17;98970.69;6889732;28;20228;-83
2021/07/22 13:05:18;;;;;;;10.63;7.70;;;;;;;34.50;26.42;98975.63;6910329;28;20303;-83
2021/07/22 13:08:40;;;;;;;11.57;7.60;;;;;;;33.74;27.75;98974.91;6904977;28;20578;-83
2021/07/22 13:12:04;;;;;;;8.17;7.37;;;;;;;34.06;26.83;98971.94;6889967;28;20244;-83
2021/07/22 13:15:25;;;;;;;8.13;7.37;;;;;;;33.72;27.53;98972.44;6889215;28;20208;-83
2021/07/22 13:18:47;;;;;;;7.70;7.10;;;;;;;33.96;27.76;98978.00;6887748;28;20692;-83
2021/07/22 13:22:09;;;;;;;8.90;7.60;;;;;;;34.34;26.67;98970.00;6890272;28;20592;-83
2021/07/22 13:25:30;;;;;;;7.70;6.90;;;;;;;34.17;26.17;98936.66;6888701;28;20298;-83
2021/07/22 13:28:53;;;;;;;8.90;7.10;;;;;;;34.55;27.18;98967.78;6887439;28;20208;-83
2021/07/22 13:32:15;;;;;;;7.93;6.83;;;;;;;34.46;27.33;98961.53;6887693;28;20342;-84
2021/07/22 13:35:37;;;;;;;7.73;6.47;;;;;;;34.55;27.90;98955.78;6888109;28;20684;-83
2021/07/22 13:38:59;;;;;;;8.80;7.03;;;;;;;34.61;27.66;98959.94;6887295;28;20232;-83
2021/07/22 13:42:21;;;;;;;8.00;7.17;;;;;;;33.57;27.88;98948.00;6888013;28;20267;-83
2021/07/22 13:45:44;;;;;;;8.43;7.50;;;;;;;33.35;28.08;98956.06;6888500;28;20347;-83
2021/07/22 13:49:06;;;;;;;7.77;6.90;;;;;;;34.05;27.49;98964.72;6887738;28;20207;-83
2021/07/22 13:52:28;;;;;;;8.57;7.33;;;;;;;33.37;27.94;98951.75;6889320;28;20235;-84
2021/07/22 13:55:49;;;;;;;8.33;7.53;;;;;;;33.76;27.09;98947.38;6888562;28;20300;-83
2021/07/22 13:59:11;;;;;;;9.20;7.90;;;;;;;34.11;26.92;98946.50;6895719;28;20236;-83
2021/07/22 14:02:34;;;;;;;9.03;7.27;;;;;;;33.73;28.09;98948.88;6917438;28;20227;-84
2021/07/22 14:05:55;;;;;;;8.77;6.60;;;;;;;32.92;29.11;98931.47;6917069;28;20204;-84
2021/07/22 14:09:17;;;;;;;8.37;7.57;;;;;;;32.49;29.18;98949.84;6890713;28;20673;-83
2021/07/22 14:12:39;;;;;;;7.47;6.77;;;;;;;32.06;29.40;98944.63;6890996;28;20232;-87
2021/07/22 14:16:00;;;;;;;9.50;7.43;;;;;;;32.84;29.97;98940.75;6890205;28;20200;-83
2021/07/22 14:19:23;;;;;;;8.40;7.47;;;;;;;33.40;28.01;98933.44;6888403;28;20232;-84
2021/07/22 14:22:45;;;;;;;10.43;7.13;;;;;;;34.35;26.05;98923.19;6888184;28;20272;-84
2021/07/22 14:26:07;;;;;;;8.13;6.80;;;;;;;33.94;27.53;98920.78;6888549;28;20201;-84
2021/07/22 14:29:28;;;;;;;8.30;7.50;;;;;;;33.59;27.34;98922.47;6888545;28;20338;-84
2021/07/22 14:32:50;;;;;;;8.97;7.13;;;;;;;33.15;27.46;98920.63;6888898;28;20255;-84
2021/07/22 14:36:13;;;;;;;8.33;7.23;;;;;;;33.58;26.79;98918.03;6903173;28;20213;-83
2021/07/22 14:39:35;;;;;;;7.63;6.83;;;;;;;32.87;28.68;98916.88;6915017;28;20242;-83
2021/07/22 14:42:56;;;;;;;7.80;7.07;;;;;;;32.93;29.36;98916.31;6914464;28;20243;-83
2021/07/22 14:46:18;;;;;;;9.37;6.93;;;;;;;33.78;27.71;98915.13;6915066;28;20222;-84
2021/07/22 14:49:40;;;;;;;10.33;7.97;;;;;;;33.68;26.82;98892.38;6914352;28;20207;-83
2021/07/22 14:53:03;;;;;;;8.23;7.43;;;;;;;33.31;27.96;98910.41;6917153;28;20237;-83
2021/07/22 14:56:25;;;;;;;9.00;7.70;;;;;;;32.09;29.19;98906.88;6915240;28;20216;-83
2021/07/22 14:59:46;;;;;;;9.53;7.47;;;;;;;32.95;28.55;98905.59;6915515;28;20237;-83
2021/07/22 15:03:08;;;;;;;9.27;8.37;;;;;;;32.74;27.77;98898.47;6915599;28;20235;-83
2021/07/22 15:06:30;;;;;;;8.30;7.27;;;;;;;32.29;29.50;98901.28;6903877;28;20215;-83
2021/07/22 15:09:53;;;;;;;8.47;7.60;;;;;;;32.35;28.78;98868.38;6887075;28;20683;-83
2021/07/22 15:13:18;;;;;;;7.80;6.67;;;;;;;33.20;28.21;98878.47;6889211;28;20226;-83
2021/07/22 15:16:39;;;;;;;9.10;6.73;;;;;;;33.92;27.29;98897.94;6892449;28;20636;-84
2021/07/22 15:20:01;;;;;;;9.13;7.37;;;;;;;33.62;27.24;98903.03;6891651;28;20227;-83
2021/07/22 15:23:23;;;;;;;6.80;5.87;;;;;;;32.97;26.52;98894.09;6892023;28;20235;-83
2021/07/22 15:26:46;;;;;;;8.67;6.83;;;;;;;33.36;26.66;98899.78;6892240;28;20211;-83
2021/07/22 15:33:36;;;;;;;7.37;6.63;;;;;;;32.89;27.13;98893.03;6909509;28;20225;-83
2021/07/22 15:36:58;;;;;;;9.43;7.30;;;;;;;32.00;27.19;98862.31;6918826;28;20222;-83
2021/07/22 15:40:20;;;;;;;11.50;8.03;;;;;;;32.78;27.08;98886.25;6917813;28;20584;-83
2021/07/22 15:43:43;;;;;;;7.60;6.73;;;;;;;33.34;26.17;98885.34;6892806;28;20539;-82
2021/07/22 15:47:04;;;;;;;9.80;7.00;;;;;;;32.96;26.92;98893.25;6894155;28;20199;-83
2021/07/22 15:50:26;;;;;;;6.90;6.20;;;;;;;33.69;26.11;98888.41;6908563;28;20208;-82
2021/07/22 15:53:48;;;;;;;8.83;7.10;;;;;;;32.47;26.73;98896.31;6909433;28;20568;-84
2021/07/22 15:57:11;;;;;;;11.83;6.97;;;;;;;32.77;26.92;98890.22;6892768;28;20206;-83
2021/07/22 16:00:34;;;;;;;9.43;6.37;;;;;;;32.56;27.04;98894.25;6893277;28;20255;-84
2021/07/22 16:03:56;;;;;;;9.80;6.77;;;;;;;32.55;26.84;98879.47;6865164;28;20220;-85
2021/07/22 16:07:17;;;;;;;7.90;7.07;;;;;;;33.04;26.17;98883.13;6877002;28;20267;-87
2021/07/22 16:10:39;;;;;;;8.00;6.40;;;;;;;32.97;24.93;98866.16;6889586;28;20238;-86
2021/07/22 16:14:01;;;;;;;8.53;6.20;;;;;;;32.59;26.14;98860.84;6889602;28;20211;-87
2021/07/22 16:17:24;;;;;;;7.10;6.47;;;;;;;32.93;26.22;98870.78;6879325;28;20224;-85
2021/07/22 16:20:45;;;;;;;9.10;6.90;;;;;;;32.41;27.62;98869.78;6878111;28;20710;-86
2021/07/22 16:24:07;;;;;;;7.73;6.90;;;;;;;32.70;27.77;98872.38;6889636;28;20216;-86
2021/07/22 16:27:29;;;;;;;9.87;7.00;;;;;;;31.83;27.99;98867.25;6889158;28;20250;-86
2021/07/22 16:30:52;;;;;;;7.23;6.40;;;;;;;32.71;27.71;98871.22;6888064;28;20235;-85
2021/07/22 16:34:15;;;;;;;7.53;6.83;;;;;;;32.45;27.67;98867.94;6888970;28;20261;-87
2021/07/22 16:37:37;;;;;;;7.90;7.10;;;;;;;31.60;29.40;98849.22;6889022;28;20219;-86
2021/07/22 16:40:59;;;;;;;8.10;7.30;;;;;;;31.50;28.69;98863.56;6888489;28;20238;-86
2021/07/22 16:44:21;;;;;;;7.90;6.77;;;;;;;31.33;29.64;98855.31;6889313;28;20607;-87
2021/07/22 16:47:42;;;;;;;7.80;7.00;;;;;;;31.11;29.57;98838.88;6888855;28;20211;-85
2021/07/22 16:51:06;;;;;;;7.80;7.00;;;;;;;31.94;28.52;98852.53;6888233;28;20592;-84
2021/07/22 16:54:28;;;;;;;7.70;6.90;;;;;;;31.87;28.61;98857.03;6889191;28;20272;-83
2021/07/22 16:57:50;;;;;;;7.97;6.67;;;;;;;31.55;29.48;98857.78;6894484;28;20643;-83
2021/07/22 17:01:12;;;;;;;8.60;7.30;;;;;;;31.65;29.21;98862.94;6886356;28;20237;-83
2021/07/22 17:04:33;;;;;;;8.13;6.80;;;;;;;31.57;29.59;98858.25;6876248;28;20301;-83
2021/07/22 17:07:57;;;;;;;8.03;6.73;;;;;;;31.79;29.10;98835.63;6860811;28;20215;-83
2021/07/22 17:11:18;;;;;;;7.23;6.53;;;;;;;31.02;30.68;98858.44;6865514;28;20604;-83
2021/07/22 17:14:40;;;;;;;8.40;7.00;;;;;;;31.25;29.21;98854.22;6888294;28;20228;-83
2021/07/22 17:18:03;;;;;;;9.10;6.83;;;;;;;31.58;29.56;98852.34;6888307;28;20692;-83
2021/07/22 17:21:25;;;;;;;11.03;7.20;;;;;;;31.50;29.39;98847.66;6889064;28;20296;-83
2021/07/22 17:24:48;;;;;;;8.20;6.70;;;;;;;31.80;28.63;98851.19;6889879;28;20349;-83
2021/07/22 17:28:09;;;;;;;7.53;6.83;;;;;;;31.55;29.21;98830.69;6889938;28;20205;-82
2021/07/22 17:31:31;;;;;;;7.53;6.80;;;;;;;31.63;29.07;98851.31;6889546;28;20288;-83
2021/07/22 17:34:53;;;;;;;8.50;6.77;;;;;;;31.80;28.85;98848.41;6888819;28;20203;-83
2021/07/22 17:38:15;;;;;;;8.50;6.63;;;;;;;31.76;29.80;98848.28;6889559;28;20565;-83
2021/07/22 17:41:38;;;;;;;8.97;7.90;;;;;;;31.47;30.15;98853.91;6889121;28;20239;-83
2021/07/22 17:45:00;;;;;;;10.73;7.10;;;;;;;31.83;29.63;98851.31;6889298;28;20262;-83
2021/07/22 17:48:21;;;;;;;8.47;7.27;;;;;;;31.50;29.93;98853.25;6889598;28;20238;-83
2021/07/22 17:51:43;;;;;;;7.80;7.00;;;;;;;31.59;29.65;98859.53;6890329;28;20439;-83
2021/07/22 17:55:06;;;;;;;8.77;7.50;;;;;;;31.41;30.51;98852.47;6889187;28;20199;-84
2021/07/22 17:58:30;;;;;;;8.07;7.33;;;;;;;30.92;30.77;98850.50;6890116;28;20208;-83
2021/07/22 18:01:51;;;;;;;7.90;6.67;;;;;;;31.40;30.38;98850.84;6886835;28;20234;-84
2021/07/22 18:05:13;;;;;;;9.37;7.27;;;;;;;30.99;31.03;98850.78;6883469;28;20658;-84
2021/07/22 18:08:35;;;;;;;10.23;6.80;;;;;;;31.38;30.51;98853.13;6888161;28;20222;-83
2021/07/22 18:11:56;;;;;;;10.23;7.23;;;;;;;30.84;31.66;98856.91;6888857;28;20239;-83
2021/07/22 18:15:19;;;;;;;8.17;6.97;;;;;;;30.42;32.46;98865.44;6889465;28;20207;-83
2021/07/22 18:18:41;;;;;;;10.07;7.57;;;;;;;31.06;31.69;98856.63;6889094;28;20575;-82
2021/07/22 18:22:05;;;;;;;8.37;7.53;;;;;;;30.86;32.13;98851.84;6890478;28;20243;-82
2021/07/22 18:25:28;;;;;;;9.10;7.57;;;;;;;30.47;33.01;98859.66;6890564;28;20206;-82
2021/07/22 18:28:50;;;;;;;11.30;7.50;;;;;;;30.80;32.61;98855.13;6889502;28;20237;-82
2021/07/22 18:32:18;;;;;;;9.83;7.73;;;;;;;30.38;33.04;98867.22;6890468;28;21080;-82
2021/07/22 18:35:50;;;;;;;9.83;7.40;;;;;;;30.03;33.75;98865.66;6890816;28;20191;-83
2021/07/22 18:39:11;;;;;;;12.30;7.67;;;;;;;29.85;34.28;98864.06;6864953;28;20199;-82
2021/07/22 18:42:33;;;;;;;8.73;7.93;;;;;;;30.54;32.84;98871.91;6884896;28;20262;-82
2021/07/22 18:45:55;;;;;;;11.13;8.00;;;;;;;30.64;32.93;98866.03;6889233;28;20211;-82
2021/07/22 18:49:19;;;;;;;10.00;7.77;;;;;;;30.77;33.93;98861.38;6893671;28;20206;-82
2021/07/22 18:52:43;;;;;;;8.80;7.90;;;;;;;29.91;36.56;98863.53;6894157;28;20273;-82
2021/07/22 18:56:05;;;;;;;10.03;7.93;;;;;;;29.12;38.10;98822.47;6894729;28;20577;-82
2021/07/22 18:59:26;;;;;;;9.30;8.00;;;;;;;29.23;38.62;98823.81;6893778;28;20198;-82
2021/07/22 19:02:48;;;;;;;10.40;8.63;;;;;;;29.30;39.57;98855.50;6894732;28;20244;-81
2021/07/22 19:06:11;;;;;;;9.83;8.27;;;;;;;28.86;40.64;98854.91;6894566;28;20718;-82
2021/07/22 19:09:33;;;;;;;9.00;8.10;;;;;;;28.69;41.64;98869.56;6893116;28;20200;-82
2021/07/22 19:12:55;;;;;;;9.00;8.10;;;;;;;28.55;42.20;98882.69;6893385;28;20231;-82
2021/07/22 19:16:17;;;;;;;10.90;7.90;;;;;;;28.13;42.71;98841.69;6893586;28;20677;-82
2021/07/22 19:19:39;;;;;;;9.37;7.77;;;;;;;28.60;42.31;98882.56;6893369;28;20215;-82
2021/07/22 19:23:02;;;;;;;9.67;8.03;;;;;;;28.00;43.91;98883.34;6893957;28;20581;-82
2021/07/22 19:26:23;;;;;;;12.43;9.10;;;;;;;27.76;44.22;98878.09;6894215;28;20243;-82